Time;durP1;ratioP1;P1;durP2;ratioP2;P2;SDS_P1;SDS_P2;PMS_P1;PMS_P2;Temp;Humidity;BMP_temperature;BMP_pressure;BME280_temperature;BME280_humidity;BME280_pressure;Samples;Min_cycle;Max_cycle;Signal;HPM_P1;HPM_P2
2024/03/04 06:01:55;;;;;;;61.10;26.73;;;;;;;;;;5413205;23;20527;-73
2024/03/04 06:04:23;;;;;;;79.70;28.93;;;;;;;;;;5013119;28;20898;-73
2024/03/04 06:06:49;;;;;;;67.80;26.43;;;;;;;;;;5012985;28;20881;-73
2024/03/04 06:09:16;;;;;;;65.50;28.50;;;;;;;;;;5013567;28;20494;-72
2024/03/04 06:11:44;;;;;;;64.97;26.57;;;;;;;;;;5013285;28;20613;-72
2024/03/04 06:14:10;;;;;;;70.47;26.80;;;;;;;;;;5014045;28;20463;-72
2024/03/04 06:16:36;;;;;;;87.93;30.37;;;;;;;;;;5013527;28;20497;-72
2024/03/04 06:19:02;;;;;;;63.87;27.83;;;;;;;;;;5013589;28;20406;-72
2024/03/04 06:21:27;;;;;;;68.27;27.73;;;;;;;;;;5013509;28;20484;-72
2024/03/04 06:23:53;;;;;;;69.07;26.87;;;;;;;;;;5013114;28;20410;-70
2024/03/04 06:26:19;;;;;;;74.57;28.63;;;;;;;;;;5013160;28;20492;-72
2024/03/04 06:28:45;;;;;;;71.67;27.70;;;;;;;;;;5013083;28;20410;-71
2024/03/04 06:31:12;;;;;;;73.53;30.27;;;;;;;;;;5013126;28;20429;-71
2024/03/04 06:33:38;;;;;;;75.10;29.77;;;;;;;;;;5012804;28;20422;-71
2024/03/04 06:36:04;;;;;;;83.87;31.10;;;;;;;;;;5013279;28;20405;-70
2024/03/04 06:38:30;;;;;;;74.83;31.07;;;;;;;;;;5031869;28;20429;-71
2024/03/04 06:40:56;;;;;;;67.43;26.90;;;;;;;;;;5037628;28;20462;-71
2024/03/04 06:43:22;;;;;;;72.23;29.97;;;;;;;;;;5036808;28;20414;-71
2024/03/04 06:45:48;;;;;;;76.90;27.30;;;;;;;;;;5014097;28;20410;-71
2024/03/04 06:48:14;;;;;;;77.23;28.40;;;;;;;;;;5012869;28;20417;-70
2024/03/04 06:50:40;;;;;;;85.07;32.57;;;;;;;;;;5012750;28;20426;-71
2024/03/04 06:53:08;;;;;;;83.37;33.63;;;;;;;;;;5012709;28;20501;-70
2024/03/04 06:55:34;;;;;;;71.03;29.23;;;;;;;;;;5012391;28;20418;-70
2024/03/04 06:58:01;;;;;;;91.60;31.53;;;;;;;;;;5012625;28;20417;-71
2024/03/04 07:00:27;;;;;;;84.07;30.40;;;;;;;;;;5013221;28;20462;-70
2024/03/04 07:02:53;;;;;;;68.90;28.03;;;;;;;;;;5012947;28;20966;-70
2024/03/04 07:05:18;;;;;;;85.23;31.60;;;;;;;;;;5012285;28;20742;-70
2024/03/04 07:07:45;;;;;;;87.70;34.47;;;;;;;;;;5012025;28;20770;-71
2024/03/04 07:10:11;;;;;;;89.67;34.70;;;;;;;;;;5012355;28;20498;-70
2024/03/04 07:12:37;;;;;;;79.10;32.23;;;;;;;;;;5012527;28;20496;-73
2024/03/04 07:15:06;;;;;;;75.63;29.83;;;;;;;;;;5012363;28;20410;-72
2024/03/04 07:17:32;;;;;;;79.83;31.63;;;;;;;;;;5012454;28;20497;-73
2024/03/04 07:19:58;;;;;;;92.40;33.77;;;;;;;;;;5011019;28;20465;-71
2024/03/04 07:22:24;;;;;;;87.37;32.50;;;;;;;;;;5012384;28;20858;-72
2024/03/04 07:24:50;;;;;;;85.00;31.47;;;;;;;;;;5012025;28;20445;-72
2024/03/04 07:27:16;;;;;;;88.20;36.23;;;;;;;;;;5012172;28;20406;-71
2024/03/04 07:29:42;;;;;;;90.90;34.97;;;;;;;;;;5012086;28;20418;-72
2024/03/04 07:32:08;;;;;;;85.13;33.83;;;;;;;;;;5011926;28;20511;-73
2024/03/04 07:34:34;;;;;;;91.47;35.30;;;;;;;;;;5011952;28;20448;-72
2024/03/04 07:37:00;;;;;;;86.30;35.77;;;;;;;;;;5012277;28;20438;-73
2024/03/04 07:39:26;;;;;;;87.27;33.20;;;;;;;;;;5011689;28;20461;-73
2024/03/04 07:41:52;;;;;;;78.43;31.77;;;;;;;;;;5011880;28;20473;-73
2024/03/04 07:44:18;;;;;;;95.90;35.37;;;;;;;;;;5012046;28;20445;-73
2024/03/04 07:46:44;;;;;;;92.10;33.87;;;;;;;;;;5012534;28;20410;-72
2024/03/04 07:49:10;;;;;;;107.43;37.80;;;;;;;;;;5012900;28;20943;-73
2024/03/04 07:51:36;;;;;;;90.73;33.40;;;;;;;;;;5013027;28;20426;-71
2024/03/04 07:54:04;;;;;;;87.67;31.33;;;;;;;;;;5012788;28;20498;-73
2024/03/04 07:56:30;;;;;;;95.37;32.80;;;;;;;;;;5014251;28;20410;-73
2024/03/04 07:58:56;;;;;;;92.50;33.80;;;;;;;;;;5016439;28;20406;-72
2024/03/04 08:01:22;;;;;;;83.70;31.83;;;;;;;;;;5015851;28;20449;-72
2024/03/04 08:03:48;;;;;;;98.00;35.20;;;;;;;;;;5015960;28;20406;-72
2024/03/04 08:06:14;;;;;;;80.93;31.33;;;;;;;;;;5015896;28;20442;-72
2024/03/04 08:08:40;;;;;;;90.93;34.23;;;;;;;;;;5015866;28;20421;-72
2024/03/04 08:11:06;;;;;;;81.10;30.47;;;;;;;;;;5014681;28;20444;-71
2024/03/04 08:13:32;;;;;;;85.07;36.07;;;;;;;;;;5015625;28;20424;-72
2024/03/04 08:15:58;;;;;;;80.43;30.63;;;;;;;;;;5015716;28;20418;-72
2024/03/04 08:18:24;;;;;;;94.87;33.47;;;;;;;;;;5015915;28;20789;-72
2024/03/04 08:20:52;;;;;;;85.87;30.70;;;;;;;;;;5015450;28;20476;-72
2024/03/04 08:23:18;;;;;;;91.90;33.67;;;;;;;;;;5015609;28;20424;-72
2024/03/04 08:25:44;;;;;;;101.47;34.13;;;;;;;;;;5015669;28;20492;-72
2024/03/04 08:28:11;;;;;;;87.13;32.40;;;;;;;;;;5015472;28;20541;-72
2024/03/04 08:30:37;;;;;;;93.67;32.70;;;;;;;;;;5015476;28;20497;-72
2024/03/04 08:33:06;;;;;;;81.03;32.07;;;;;;;;;;5025271;28;20416;-74
2024/03/04 08:35:32;;;;;;;87.63;32.67;;;;;;;;;;5020618;28;20543;-72
2024/03/04 08:37:58;;;;;;;83.43;32.07;;;;;;;;;;5015424;28;20901;-72
2024/03/04 08:40:26;;;;;;;84.93;33.27;;;;;;;;;;5013786;28;20477;-72
2024/03/04 08:42:52;;;;;;;88.60;33.10;;;;;;;;;;5015244;28;20410;-73
2024/03/04 08:45:18;;;;;;;104.73;35.93;;;;;;;;;;5014995;28;20786;-72
2024/03/04 08:47:44;;;;;;;94.83;34.10;;;;;;;;;;5015054;28;20414;-72
2024/03/04 08:50:10;;;;;;;87.33;32.90;;;;;;;;;;5014860;28;20500;-72
2024/03/04 08:52:36;;;;;;;87.53;33.60;;;;;;;;;;5015044;28;20428;-72
2024/03/04 08:55:03;;;;;;;80.23;31.67;;;;;;;;;;5013754;28;20875;-72
2024/03/04 08:57:29;;;;;;;92.00;34.27;;;;;;;;;;5018361;28;20418;-72
2024/03/04 08:59:55;;;;;;;90.03;32.70;;;;;;;;;;5015067;28;20632;-72
2024/03/04 09:02:22;;;;;;;95.27;34.47;;;;;;;;;;5014729;28;20481;-72
2024/03/04 09:04:49;;;;;;;98.33;34.07;;;;;;;;;;5014683;28;20413;-72
2024/03/04 09:07:15;;;;;;;92.10;35.47;;;;;;;;;;5014344;28;20410;-72
2024/03/04 09:09:42;;;;;;;85.50;32.77;;;;;;;;;;5014817;28;20471;-72
2024/03/04 09:12:08;;;;;;;83.27;31.73;;;;;;;;;;5014534;28;20600;-73
2024/03/04 09:14:34;;;;;;;94.87;34.43;;;;;;;;;;5014375;28;20414;-72
2024/03/04 09:17:00;;;;;;;82.93;31.87;;;;;;;;;;5014511;28;20433;-72
2024/03/04 09:19:26;;;;;;;99.37;34.47;;;;;;;;;;5013132;28;20461;-72
2024/03/04 09:21:54;;;;;;;82.50;33.63;;;;;;;;;;5014591;28;20433;-72
2024/03/04 09:24:20;;;;;;;90.23;36.57;;;;;;;;;;5014011;28;20406;-72
2024/03/04 09:26:46;;;;;;;95.83;35.93;;;;;;;;;;5014293;28;20456;-71
2024/03/04 09:29:13;;;;;;;85.10;32.87;;;;;;;;;;5016612;28;20402;-72
2024/03/04 09:31:39;;;;;;;94.57;35.20;;;;;;;;;;5020911;28;20898;-71
2024/03/04 09:34:05;;;;;;;90.93;34.77;;;;;;;;;;5014869;28;20407;-72
2024/03/04 09:36:31;;;;;;;82.30;31.47;;;;;;;;;;5012756;28;20967;-72
2024/03/04 09:38:57;;;;;;;101.87;34.37;;;;;;;;;;5014240;28;20448;-72
2024/03/04 09:41:25;;;;;;;108.20;37.40;;;;;;;;;;5013931;28;20454;-72
2024/03/04 09:43:52;;;;;;;97.00;36.40;;;;;;;;;;5021103;28;20444;-73
2024/03/04 09:46:18;;;;;;;100.10;36.37;;;;;;;;;;5014030;28;20810;-71
2024/03/04 09:48:45;;;;;;;105.53;37.00;;;;;;;;;;5013409;28;20867;-72
2024/03/04 09:51:11;;;;;;;105.23;36.57;;;;;;;;;;5013420;28;20469;-72
2024/03/04 09:53:38;;;;;;;101.03;37.13;;;;;;;;;;5013640;28;20422;-72
2024/03/04 09:56:04;;;;;;;109.37;39.80;;;;;;;;;;5013617;28;20419;-74
2024/03/04 09:58:32;;;;;;;113.07;37.57;;;;;;;;;;5018519;28;20426;-72
2024/03/04 10:00:59;;;;;;;113.33;38.20;;;;;;;;;;5023889;28;20461;-74
2024/03/04 10:03:25;;;;;;;95.37;37.47;;;;;;;;;;5037967;28;20430;-74
2024/03/04 10:05:51;;;;;;;113.90;38.43;;;;;;;;;;5038831;28;20420;-74
2024/03/04 10:08:17;;;;;;;98.57;38.53;;;;;;;;;;5016427;28;20925;-72
2024/03/04 10:10:47;;;;;;;106.63;36.93;;;;;;;;;;5013390;28;20467;-72
2024/03/04 10:13:14;;;;;;;98.07;37.73;;;;;;;;;;5011938;28;20803;-72
2024/03/04 10:15:40;;;;;;;95.77;36.13;;;;;;;;;;5011506;28;20508;-72
2024/03/04 10:18:13;;;;;;;89.90;33.90;;;;;;;;;;5012188;28;20482;-72
2024/03/04 10:20:39;;;;;;;112.63;38.30;;;;;;;;;;5012498;28;21006;-72
2024/03/04 10:23:06;;;;;;;92.47;34.13;;;;;;;;;;5013064;28;20822;-73
2024/03/04 10:25:33;;;;;;;94.17;36.37;;;;;;;;;;5012889;28;20416;-72
2024/03/04 10:27:59;;;;;;;99.90;36.47;;;;;;;;;;5012826;28;20410;-72
2024/03/04 10:30:27;;;;;;;94.47;34.33;;;;;;;;;;5011464;28;20414;-72
2024/03/04 10:32:53;;;;;;;107.93;39.77;;;;;;;;;;5013073;28;20909;-73
2024/03/04 10:35:19;;;;;;;99.53;38.33;;;;;;;;;;5012816;28;20418;-72
2024/03/04 10:37:46;;;;;;;108.13;39.70;;;;;;;;;;5011950;28;20414;-71
2024/03/04 10:40:12;;;;;;;100.40;38.13;;;;;;;;;;5012847;28;20551;-71
2024/03/04 10:42:45;;;;;;;109.77;40.67;;;;;;;;;;5012861;28;20438;-71
2024/03/04 10:45:17;;;;;;;111.30;38.80;;;;;;;;;;5012457;28;20421;-70
2024/03/04 10:47:44;;;;;;;110.53;41.00;;;;;;;;;;5016385;28;20437;-70
2024/03/04 10:50:11;;;;;;;115.33;41.50;;;;;;;;;;5011991;28;20458;-71
2024/03/04 10:52:37;;;;;;;107.90;40.03;;;;;;;;;;5012695;28;20432;-71
2024/03/04 10:55:03;;;;;;;109.97;36.33;;;;;;;;;;5012375;28;20414;-72
2024/03/04 10:57:33;;;;;;;98.20;33.77;;;;;;;;;;5012614;28;20975;-73
2024/03/04 11:00:10;;;;;;;117.13;40.37;;;;;;;;;;5012782;28;20468;-71
2024/03/04 11:02:48;;;;;;;125.70;42.33;;;;;;;;;;5011141;28;20859;-72
2024/03/04 11:05:16;;;;;;;107.37;38.03;;;;;;;;;;5010601;28;20418;-72
2024/03/04 11:07:43;;;;;;;115.20;42.50;;;;;;;;;;5012196;28;20409;-72
2024/03/04 11:10:29;;;;;;;105.27;39.27;;;;;;;;;;5012080;28;20417;-72
2024/03/04 11:13:02;;;;;;;120.60;39.90;;;;;;;;;;5001942;28;20732;-72
2024/03/04 11:15:31;;;;;;;111.33;40.37;;;;;;;;;;5011924;28;20418;-72
2024/03/04 11:18:00;;;;;;;113.50;38.10;;;;;;;;;;5012136;28;20414;-72
2024/03/04 11:20:26;;;;;;;120.97;38.67;;;;;;;;;;5011838;28;20804;-72
2024/03/04 11:22:53;;;;;;;103.33;37.20;;;;;;;;;;5012411;28;20767;-72
2024/03/04 11:25:19;;;;;;;106.90;38.60;;;;;;;;;;5010516;28;20433;-72
2024/03/04 11:27:46;;;;;;;105.37;37.90;;;;;;;;;;5012093;28;20406;-72
2024/03/04 11:30:12;;;;;;;106.23;39.00;;;;;;;;;;5011809;28;20500;-72
2024/03/04 11:32:38;;;;;;;102.50;36.27;;;;;;;;;;5010541;28;20545;-72
2024/03/04 11:35:06;;;;;;;121.17;39.70;;;;;;;;;;5011690;28;20843;-72
2024/03/04 11:37:32;;;;;;;115.30;38.77;;;;;;;;;;5012054;28;20957;-71
2024/03/04 11:40:01;;;;;;;111.27;38.77;;;;;;;;;;5011806;28;20454;-72
2024/03/04 11:42:38;;;;;;;119.00;41.67;;;;;;;;;;5011777;28;20453;-72
2024/03/04 11:45:08;;;;;;;102.93;37.50;;;;;;;;;;5011864;28;20410;-73
2024/03/04 11:47:34;;;;;;;121.00;42.20;;;;;;;;;;5010917;28;20848;-73
2024/03/04 11:50:01;;;;;;;86.60;33.50;;;;;;;;;;5011938;28;20456;-72
2024/03/04 11:52:27;;;;;;;100.40;37.33;;;;;;;;;;5011545;28;20434;-72
2024/03/04 11:54:55;;;;;;;97.40;36.00;;;;;;;;;;5011552;28;20491;-72
2024/03/04 11:57:24;;;;;;;129.43;40.60;;;;;;;;;;5011613;28;20421;-71
2024/03/04 12:00:00;;;;;;;112.07;37.60;;;;;;;;;;5011725;28;20466;-72
2024/03/04 12:02:26;;;;;;;112.03;38.30;;;;;;;;;;5011585;28;20488;-71
2024/03/04 12:04:53;;;;;;;118.93;38.90;;;;;;;;;;5011515;28;20414;-71
2024/03/04 12:07:20;;;;;;;99.77;36.70;;;;;;;;;;5011718;28;20494;-72
2024/03/04 12:09:47;;;;;;;99.23;35.07;;;;;;;;;;5010683;28;20484;-72
2024/03/04 12:12:13;;;;;;;96.30;34.70;;;;;;;;;;5011619;28;20430;-72
2024/03/04 12:14:39;;;;;;;92.00;35.13;;;;;;;;;;5012159;28;20505;-72
2024/03/04 12:17:06;;;;;;;102.87;37.60;;;;;;;;;;5011878;28;20468;-74
2024/03/04 12:19:33;;;;;;;99.43;35.67;;;;;;;;;;5011660;28;20453;-72
2024/03/04 12:21:58;;;;;;;100.57;37.23;;;;;;;;;;5010547;28;20430;-73
2024/03/04 12:24:26;;;;;;;89.43;31.97;;;;;;;;;;5011336;28;20432;-73
2024/03/04 12:26:54;;;;;;;77.70;30.50;;;;;;;;;;5011564;28;20438;-72
2024/03/04 12:29:24;;;;;;;91.97;32.27;;;;;;;;;;5010203;28;20442;-73
2024/03/04 12:31:54;;;;;;;83.47;31.30;;;;;;;;;;5011833;28;20786;-72
2024/03/04 12:34:21;;;;;;;82.87;31.13;;;;;;;;;;5011112;28;20819;-72
2024/03/04 12:36:50;;;;;;;79.43;32.00;;;;;;;;;;5011178;28;20445;-73
2024/03/04 12:39:19;;;;;;;79.33;30.97;;;;;;;;;;5009530;28;20497;-73
2024/03/04 12:41:45;;;;;;;76.00;29.53;;;;;;;;;;5012408;28;20491;-73
2024/03/04 12:44:11;;;;;;;73.67;31.77;;;;;;;;;;5014413;28;20464;-72
2024/03/04 12:46:37;;;;;;;71.80;30.67;;;;;;;;;;5014786;28;20905;-72
2024/03/04 12:49:07;;;;;;;74.07;29.67;;;;;;;;;;5013443;28;20436;-73
2024/03/04 12:51:35;;;;;;;75.50;30.30;;;;;;;;;;5014845;28;20933;-72
2024/03/04 12:54:04;;;;;;;72.60;29.70;;;;;;;;;;5014714;28;20771;-73
2024/03/04 12:56:30;;;;;;;80.00;31.80;;;;;;;;;;5014159;28;20522;-72
2024/03/04 12:58:56;;;;;;;79.80;31.57;;;;;;;;;;5015468;28;20410;-73
2024/03/04 13:01:23;;;;;;;75.70;30.33;;;;;;;;;;5019044;28;20478;-72
2024/03/04 13:03:49;;;;;;;80.47;31.50;;;;;;;;;;5030332;28;20413;-72
2024/03/04 13:06:15;;;;;;;83.50;31.87;;;;;;;;;;5030249;28;20407;-74
2024/03/04 13:08:42;;;;;;;72.90;29.90;;;;;;;;;;5029468;28;20497;-74
2024/03/04 13:11:07;;;;;;;87.37;32.53;;;;;;;;;;5027869;28;20500;-73
2024/03/04 13:13:33;;;;;;;81.97;29.83;;;;;;;;;;5021223;28;20509;-73
2024/03/04 13:15:59;;;;;;;83.93;31.27;;;;;;;;;;5014144;28;20442;-73
2024/03/04 13:18:26;;;;;;;61.13;27.67;;;;;;;;;;5014344;28;20413;-73
2024/03/04 13:20:52;;;;;;;59.40;25.97;;;;;;;;;;5014158;28;20961;-73
2024/03/04 13:23:18;;;;;;;74.93;27.67;;;;;;;;;;5026499;28;20421;-75
2024/03/04 13:25:44;;;;;;;70.07;27.70;;;;;;;;;;5039467;28;20433;-76
2024/03/04 13:28:10;;;;;;;66.53;27.60;;;;;;;;;;5039563;28;20421;-74
2024/03/04 13:30:36;;;;;;;59.30;27.20;;;;;;;;;;5015084;28;20516;-72
2024/03/04 13:33:02;;;;;;;69.77;28.50;;;;;;;;;;5014168;28;20437;-73
2024/03/04 13:35:29;;;;;;;77.57;29.37;;;;;;;;;;5013605;28;20421;-73
2024/03/04 13:37:57;;;;;;;77.87;29.03;;;;;;;;;;5014081;28;20420;-72
2024/03/04 13:40:23;;;;;;;68.63;26.77;;;;;;;;;;5013895;28;20472;-73
2024/03/04 13:42:49;;;;;;;71.57;28.57;;;;;;;;;;5013978;28;20493;-73
2024/03/04 13:45:15;;;;;;;65.17;29.37;;;;;;;;;;5013674;28;20843;-73
2024/03/04 13:47:41;;;;;;;71.60;28.30;;;;;;;;;;5013528;28;20476;-72
2024/03/04 13:50:10;;;;;;;74.43;29.53;;;;;;;;;;5013709;28;20907;-72
2024/03/04 13:52:36;;;;;;;62.23;29.43;;;;;;;;;;5012907;28;20498;-72
2024/03/04 13:55:02;;;;;;;64.10;26.70;;;;;;;;;;5012128;28;20501;-73
2024/03/04 13:57:27;;;;;;;67.07;25.63;;;;;;;;;;5013860;28;20457;-73
2024/03/04 13:59:54;;;;;;;68.80;27.80;;;;;;;;;;5012099;28;20506;-72
2024/03/04 14:02:19;;;;;;;74.77;28.13;;;;;;;;;;5013301;28;20449;-73
2024/03/04 14:04:45;;;;;;;64.60;26.50;;;;;;;;;;5013191;28;20877;-73
2024/03/04 14:07:11;;;;;;;62.50;26.17;;;;;;;;;;5013369;28;20893;-73
2024/03/04 14:09:38;;;;;;;65.40;27.13;;;;;;;;;;5013340;28;20928;-73
2024/03/04 14:12:04;;;;;;;65.37;25.67;;;;;;;;;;5013235;28;20552;-72
2024/03/04 14:14:30;;;;;;;57.43;22.37;;;;;;;;;;5013322;28;20415;-72
2024/03/04 14:16:56;;;;;;;59.30;24.33;;;;;;;;;;5013946;28;20406;-72
2024/03/04 14:19:22;;;;;;;55.93;24.20;;;;;;;;;;5013229;28;20792;-73
2024/03/04 14:21:47;;;;;;;61.07;24.33;;;;;;;;;;5013016;28;20516;-73
2024/03/04 14:24:13;;;;;;;56.97;24.03;;;;;;;;;;5012934;28;20406;-72
2024/03/04 14:26:39;;;;;;;57.80;22.53;;;;;;;;;;5012985;28;20449;-72
2024/03/04 14:29:05;;;;;;;58.90;23.40;;;;;;;;;;5012996;28;20481;-73
2024/03/04 14:31:31;;;;;;;54.40;22.93;;;;;;;;;;5012775;28;20858;-73
2024/03/04 14:33:58;;;;;;;44.10;22.33;;;;;;;;;;5013040;28;20452;-73
2024/03/04 14:36:23;;;;;;;61.47;23.83;;;;;;;;;;5012896;28;20410;-73
2024/03/04 14:38:50;;;;;;;55.93;22.60;;;;;;;;;;5012855;28;20468;-73
2024/03/04 14:41:17;;;;;;;57.03;21.77;;;;;;;;;;5012587;28;20466;-73
2024/03/04 14:43:43;;;;;;;47.67;20.40;;;;;;;;;;5013039;28;20493;-73
2024/03/04 14:46:09;;;;;;;52.80;22.67;;;;;;;;;;5012726;28;20846;-72
2024/03/04 14:48:35;;;;;;;51.90;21.77;;;;;;;;;;5012559;28;20406;-73
2024/03/04 14:51:01;;;;;;;60.57;22.10;;;;;;;;;;5015253;28;20430;-72
2024/03/04 14:53:27;;;;;;;58.27;21.53;;;;;;;;;;5013169;28;20414;-73
2024/03/04 14:55:53;;;;;;;55.13;21.90;;;;;;;;;;5012669;28;20571;-73
2024/03/04 14:58:19;;;;;;;62.33;25.93;;;;;;;;;;5012593;28;20492;-73
2024/03/04 15:00:45;;;;;;;60.37;23.83;;;;;;;;;;5012368;28;20473;-73
2024/03/04 15:03:11;;;;;;;55.83;22.63;;;;;;;;;;5012861;28;20398;-73
2024/03/04 15:05:37;;;;;;;65.50;23.27;;;;;;;;;;5011721;28;20497;-73
2024/03/04 15:08:04;;;;;;;61.53;22.83;;;;;;;;;;5012260;28;20493;-73
2024/03/04 15:10:30;;;;;;;61.17;22.57;;;;;;;;;;5010907;28;20453;-73
2024/03/04 15:12:56;;;;;;;53.60;23.00;;;;;;;;;;5012362;28;20801;-73
2024/03/04 15:15:22;;;;;;;63.97;23.30;;;;;;;;;;5012175;28;20472;-73
2024/03/04 15:17:48;;;;;;;72.30;28.80;;;;;;;;;;5012399;28;20430;-73
2024/03/04 15:20:17;;;;;;;65.23;28.30;;;;;;;;;;5012228;28;20569;-73
2024/03/04 15:22:43;;;;;;;71.70;27.27;;;;;;;;;;5012642;28;20418;-72
2024/03/04 15:25:09;;;;;;;70.30;26.43;;;;;;;;;;5011978;28;20709;-73
2024/03/04 15:27:35;;;;;;;73.50;25.50;;;;;;;;;;5011883;28;20476;-73
2024/03/04 15:30:06;;;;;;;57.90;24.60;;;;;;;;;;5012572;28;20909;-73
2024/03/04 15:32:32;;;;;;;67.93;25.60;;;;;;;;;;5012101;28;20426;-73
2024/03/04 15:34:58;;;;;;;54.93;23.40;;;;;;;;;;5011981;28;20414;-73
2024/03/04 15:37:25;;;;;;;51.93;22.90;;;;;;;;;;5011814;28;20499;-74
2024/03/04 15:39:51;;;;;;;65.27;25.27;;;;;;;;;;5011833;28;20450;-73
2024/03/04 15:42:17;;;;;;;59.50;24.77;;;;;;;;;;5011847;28;20457;-73
2024/03/04 15:44:44;;;;;;;63.03;25.93;;;;;;;;;;5011755;28;20496;-73
2024/03/04 15:47:10;;;;;;;70.23;26.50;;;;;;;;;;5010367;28;20426;-73
2024/03/04 15:49:37;;;;;;;67.67;26.80;;;;;;;;;;5011845;28;20506;-74
2024/03/04 15:52:03;;;;;;;75.60;26.87;;;;;;;;;;5011926;28;20781;-73
2024/03/04 15:54:29;;;;;;;70.00;26.40;;;;;;;;;;5011641;28;20505;-73
2024/03/04 15:56:55;;;;;;;58.53;24.63;;;;;;;;;;5010282;28;20497;-73
2024/03/04 15:59:21;;;;;;;57.63;23.30;;;;;;;;;;5012204;28;20749;-72
2024/03/04 16:01:47;;;;;;;51.40;23.43;;;;;;;;;;5012029;28;20437;-72
2024/03/04 16:04:13;;;;;;;68.97;27.37;;;;;;;;;;5011877;28;20421;-72
2024/03/04 16:06:42;;;;;;;59.30;23.33;;;;;;;;;;5010150;28;20446;-73
2024/03/04 16:09:08;;;;;;;65.27;26.23;;;;;;;;;;5010435;28;20866;-73
2024/03/04 16:11:35;;;;;;;65.00;25.67;;;;;;;;;;5011767;28;20484;-74
2024/03/04 16:14:04;;;;;;;61.33;24.47;;;;;;;;;;5011673;28;20460;-74
2024/03/04 16:16:30;;;;;;;86.90;27.73;;;;;;;;;;5012843;28;20928;-73
2024/03/04 16:18:56;;;;;;;58.23;24.20;;;;;;;;;;5015770;28;20414;-73
2024/03/04 16:21:22;;;;;;;60.47;24.90;;;;;;;;;;5015955;28;20469;-73
2024/03/04 16:23:48;;;;;;;59.30;24.30;;;;;;;;;;5016119;28;20601;-73
2024/03/04 16:26:14;;;;;;;59.27;24.33;;;;;;;;;;5015379;28;20452;-73
2024/03/04 16:28:40;;;;;;;71.03;25.40;;;;;;;;;;5015616;28;20409;-73
2024/03/04 16:31:07;;;;;;;56.80;23.80;;;;;;;;;;5015466;28;20929;-73
2024/03/04 16:33:37;;;;;;;59.87;24.27;;;;;;;;;;5016094;28;20438;-72
2024/03/04 16:36:03;;;;;;;55.27;24.20;;;;;;;;;;5016489;28;20457;-73
2024/03/04 16:38:29;;;;;;;61.13;24.43;;;;;;;;;;5016231;28;20865;-72
2024/03/04 16:40:55;;;;;;;59.87;25.50;;;;;;;;;;5028252;28;20492;-74
2024/03/04 16:43:21;;;;;;;59.10;22.60;;;;;;;;;;5039993;28;20474;-74
2024/03/04 16:45:47;;;;;;;49.27;22.00;;;;;;;;;;5040303;28;20410;-74
2024/03/04 16:48:13;;;;;;;55.63;21.77;;;;;;;;;;5040006;28;20452;-73
2024/03/04 16:50:39;;;;;;;65.67;22.50;;;;;;;;;;5035123;28;20516;-73
2024/03/04 16:53:05;;;;;;;54.53;22.17;;;;;;;;;;5014206;28;20428;-72
2024/03/04 16:55:34;;;;;;;55.57;22.10;;;;;;;;;;5014971;28;20425;-73
2024/03/04 16:58:02;;;;;;;48.27;20.80;;;;;;;;;;5015764;28;20894;-73
2024/03/04 17:00:28;;;;;;;55.70;22.87;;;;;;;;;;5014964;28;20837;-73
2024/03/04 17:02:54;;;;;;;53.00;21.23;;;;;;;;;;5020405;28;20410;-72
2024/03/04 17:05:21;;;;;;;49.80;22.37;;;;;;;;;;5016407;28;20414;-72
2024/03/04 17:07:47;;;;;;;43.43;18.13;;;;;;;;;;5015081;28;20823;-72
2024/03/04 17:10:13;;;;;;;40.73;16.97;;;;;;;;;;5014925;28;20429;-72
2024/03/04 17:12:42;;;;;;;56.43;18.93;;;;;;;;;;5015797;28;20886;-74
2024/03/04 17:15:08;;;;;;;52.40;19.17;;;;;;;;;;5021184;28;20463;-73
2024/03/04 17:17:35;;;;;;;49.37;21.20;;;;;;;;;;5018097;28;20414;-73
2024/03/04 17:20:08;;;;;;;53.67;19.57;;;;;;;;;;5013535;28;20548;-74
2024/03/04 17:22:34;;;;;;;47.57;19.63;;;;;;;;;;5013174;28;20444;-73
2024/03/04 17:25:03;;;;;;;42.07;19.20;;;;;;;;;;5012966;28;20493;-74
2024/03/04 17:27:29;;;;;;;48.80;20.23;;;;;;;;;;5014445;28;20406;-74
2024/03/04 17:29:55;;;;;;;61.37;22.40;;;;;;;;;;5018217;28;20417;-75
2024/03/04 17:32:21;;;;;;;43.20;18.83;;;;;;;;;;5014918;28;20434;-74
2024/03/04 17:34:47;;;;;;;55.33;19.40;;;;;;;;;;4996524;28;20510;-73
2024/03/04 17:37:13;;;;;;;53.40;20.90;;;;;;;;;;4994526;28;20419;-73
2024/03/04 17:39:43;;;;;;;42.73;17.83;;;;;;;;;;4993283;28;20468;-74
2024/03/04 17:42:09;;;;;;;52.83;19.90;;;;;;;;;;4994187;28;20419;-73
2024/03/04 17:44:35;;;;;;;50.37;21.43;;;;;;;;;;5008969;28;20202;-76
2024/03/04 17:47:01;;;;;;;50.67;20.00;;;;;;;;;;5010984;28;20476;-73
2024/03/04 17:49:27;;;;;;;49.90;21.17;;;;;;;;;;5011581;28;20442;-77
2024/03/04 17:51:54;;;;;;;47.07;20.63;;;;;;;;;;5010513;28;20536;-77
2024/03/04 17:54:20;;;;;;;46.60;20.40;;;;;;;;;;5009367;28;20410;-77
2024/03/04 17:56:46;;;;;;;53.90;22.27;;;;;;;;;;5023945;28;20422;-77
2024/03/04 17:59:12;;;;;;;50.60;19.27;;;;;;;;;;5015171;28;20979;-77
2024/03/04 18:01:38;;;;;;;50.67;20.97;;;;;;;;;;5013974;28;20969;-77
2024/03/04 18:04:04;;;;;;;47.87;18.73;;;;;;;;;;5013950;28;20446;-77
2024/03/04 18:06:31;;;;;;;54.33;21.40;;;;;;;;;;5024197;28;20410;-78
2024/03/04 18:08:57;;;;;;;68.90;21.37;;;;;;;;;;5013913;28;20432;-76
2024/03/04 18:11:23;;;;;;;45.47;19.60;;;;;;;;;;5011605;28;20442;-78
2024/03/04 18:13:49;;;;;;;54.30;21.53;;;;;;;;;;5027006;23;20496;-73
2024/03/04 18:16:15;;;;;;;46.70;19.83;;;;;;;;;;5014697;28;20406;-72
2024/03/04 18:18:41;;;;;;;56.83;22.47;;;;;;;;;;5014115;28;20420;-70
2024/03/04 18:21:07;;;;;;;56.30;21.23;;;;;;;;;;5016920;28;20481;-72
2024/03/04 18:23:33;;;;;;;49.40;19.67;;;;;;;;;;5016990;28;20854;-71
2024/03/04 18:26:00;;;;;;;54.17;22.40;;;;;;;;;;5015466;28;20449;-72
2024/03/04 18:28:28;;;;;;;56.53;21.07;;;;;;;;;;5018106;28;20439;-72
2024/03/04 18:30:56;;;;;;;57.53;22.50;;;;;;;;;;5014404;28;20471;-76
2024/03/04 18:33:22;;;;;;;56.53;22.27;;;;;;;;;;5014665;28;20434;-74
2024/03/04 18:35:48;;;;;;;52.37;21.47;;;;;;;;;;5014026;28;20442;-73
2024/03/04 18:38:14;;;;;;;55.87;21.67;;;;;;;;;;5023202;28;20487;-71
2024/03/04 18:40:40;;;;;;;60.10;21.60;;;;;;;;;;5016274;28;20907;-72
2024/03/04 18:43:06;;;;;;;56.03;23.03;;;;;;;;;;5013157;28;20414;-73
2024/03/04 18:45:32;;;;;;;55.07;21.60;;;;;;;;;;5020859;28;20804;-73
2024/03/04 18:47:58;;;;;;;53.47;22.13;;;;;;;;;;5018932;28;20425;-71
2024/03/04 18:50:24;;;;;;;70.10;25.30;;;;;;;;;;5021054;28;20436;-71
2024/03/04 18:52:51;;;;;;;61.47;23.10;;;;;;;;;;5014405;28;20429;-72
2024/03/04 18:55:18;;;;;;;62.37;23.93;;;;;;;;;;5013769;28;20909;-74
2024/03/04 18:57:44;;;;;;;56.23;21.33;;;;;;;;;;5012203;28;20442;-73
2024/03/04 19:00:11;;;;;;;52.00;22.23;;;;;;;;;;5011009;28;20462;-72
2024/03/04 19:02:37;;;;;;;56.77;22.03;;;;;;;;;;5024014;28;20490;-73
2024/03/04 19:05:03;;;;;;;63.47;25.37;;;;;;;;;;5013462;28;20430;-72
2024/03/04 19:07:32;;;;;;;55.27;23.40;;;;;;;;;;5013687;28;20778;-74
2024/03/04 19:10:03;;;;;;;64.90;24.83;;;;;;;;;;5013043;28;20453;-72
2024/03/04 19:12:29;;;;;;;65.90;24.10;;;;;;;;;;5013628;28;20430;-74
2024/03/04 19:14:55;;;;;;;64.10;26.20;;;;;;;;;;5013521;28;20449;-72
2024/03/04 19:17:21;;;;;;;75.33;27.60;;;;;;;;;;5013526;28;20441;-71
2024/03/04 19:19:47;;;;;;;61.43;24.90;;;;;;;;;;5013463;28;20500;-73
2024/03/04 19:22:13;;;;;;;67.20;25.73;;;;;;;;;;5013454;28;20484;-74
2024/03/04 19:24:39;;;;;;;63.07;24.40;;;;;;;;;;5013070;28;20798;-73
2024/03/04 19:27:05;;;;;;;55.27;23.57;;;;;;;;;;5015626;28;20418;-73
2024/03/04 19:29:31;;;;;;;66.60;26.40;;;;;;;;;;5013009;28;20501;-75
2024/03/04 19:31:58;;;;;;;80.77;29.20;;;;;;;;;;5014618;28;20410;-71
2024/03/04 19:34:23;;;;;;;58.40;23.37;;;;;;;;;;5025288;28;20429;-71
2024/03/04 19:36:49;;;;;;;72.30;27.77;;;;;;;;;;5027379;28;20414;-70
2024/03/04 19:39:18;;;;;;;58.03;23.17;;;;;;;;;;5028830;28;20445;-70
2024/03/04 19:41:44;;;;;;;72.67;27.17;;;;;;;;;;5038330;28;20457;-74
2024/03/04 19:44:09;;;;;;;66.70;26.40;;;;;;;;;;5022419;28;20532;-71
2024/03/04 19:46:35;;;;;;;67.10;25.47;;;;;;;;;;5021783;28;20606;-72
2024/03/04 19:49:01;;;;;;;78.57;29.60;;;;;;;;;;5010992;28;20422;-75
2024/03/04 19:51:29;;;;;;;64.53;26.50;;;;;;;;;;5017016;28;20409;-71
2024/03/04 19:53:57;;;;;;;69.13;28.37;;;;;;;;;;5020424;28;20576;-71
2024/03/04 19:56:23;;;;;;;74.23;28.60;;;;;;;;;;5022360;28;20445;-71
2024/03/04 19:58:49;;;;;;;78.33;29.40;;;;;;;;;;5022570;28;20413;-77
2024/03/04 20:01:15;;;;;;;85.10;30.07;;;;;;;;;;5019051;28;20543;-71
2024/03/04 20:03:42;;;;;;;79.60;30.70;;;;;;;;;;5027803;28;20912;-70
2024/03/04 20:06:12;;;;;;;73.13;30.80;;;;;;;;;;5023870;28;20461;-70
2024/03/04 20:08:38;;;;;;;74.10;28.83;;;;;;;;;;5026650;28;20442;-70
2024/03/04 20:11:08;;;;;;;79.87;29.37;;;;;;;;;;5020392;28;20508;-70
2024/03/04 20:13:35;;;;;;;73.37;28.87;;;;;;;;;;5020402;28;20424;-71